| time (UTC) | temp C | wind direction | speed KPH | gust KPH | rain 1hr cm | rain 24hr cm | rain mn cm | humidity % | barometer mb |
| 20260502203547 | 22 | 130 | 0.0 | 4.8 | 0.03 | 0.66 | 0.33 | 50 | 1021.4 |
| 20260502203116 | 22 | 40 | 1.6 | 6.4 | 0.03 | 0.66 | 0.33 | 54 | 1021.5 |
| 20260502202546 | 22 | 0 | 0.0 | 8.0 | 0.03 | 0.66 | 0.33 | 52 | 1021.5 |
| 20260502202049 | 22 | 118 | 0.0 | 8.0 | 0.03 | 0.66 | 0.33 | 54 | 1021.5 |
| 20260502201557 | 22 | 116 | 0.0 | 6.4 | 0.03 | 0.66 | 0.33 | 48 | 1021.6 |
| 20260502201049 | 22 | 0 | 0.0 | 4.8 | 0.03 | 0.66 | 0.33 | 48 | 1021.7 |
| 20260502200548 | 22 | 112 | 0.0 | 4.8 | 0.03 | 0.66 | 0.33 | 48 | 1021.7 |
| 20260502200046 | 22 | 112 | 0.0 | 4.8 | 0.03 | 0.66 | 0.33 | 54 | 1021.8 |
| 20260502195547 | 22 | 0 | 0.0 | 4.8 | 0.00 | 0.69 | 0.30 | 53 | 1021.9 |
| 20260502195045 | 22 | 0 | 0.0 | 3.2 | 0.00 | 0.69 | 0.30 | 59 | 1021.7 |
| 20260502194555 | 22 | 0 | 0.0 | 3.2 | 0.00 | 0.69 | 0.30 | 56 | 1021.8 |
| 20260502194047 | 22 | 0 | 0.0 | 6.4 | 0.00 | 0.69 | 0.30 | 57 | 1021.7 |
| 20260502193547 | 22 | 0 | 0.0 | 8.0 | 0.00 | 0.69 | 0.30 | 57 | 1021.8 |
| 20260502193106 | 22 | 40 | 1.6 | 8.0 | 0.00 | 0.69 | 0.30 | 57 | 1021.8 |
| 20260502192546 | 21 | 0 | 0.0 | 6.4 | 0.00 | 0.69 | 0.30 | 54 | 1022.0 |
| 20260502192046 | 21 | 110 | 0.0 | 11.3 | 0.00 | 0.69 | 0.30 | 56 | 1022.1 |
| 20260502191552 | 21 | 0 | 1.6 | 11.3 | 0.00 | 0.69 | 0.30 | 57 | 1022.0 |
| 20260502191048 | 21 | 25 | 1.6 | 6.4 | 0.00 | 0.69 | 0.30 | 60 | 1022.0 |
| 20260502190547 | 21 | 0 | 0.0 | 4.8 | 0.00 | 0.69 | 0.30 | 59 | 1022.0 |
| 20260502190052 | 21 | 0 | 0.0 | 4.8 | 0.00 | 0.69 | 0.30 | 58 | 1021.9 |
| 20260502185546 | 21 | 113 | 0.0 | 4.8 | 0.00 | 0.76 | 0.30 | 56 | 1022.1 |
| 20260502185046 | 21 | 0 | 0.0 | 4.8 | 0.00 | 0.76 | 0.30 | 58 | 1022.2 |
| 20260502184602 | 21 | 75 | 0.0 | 4.8 | 0.03 | 0.76 | 0.30 | 61 | 1022.2 |
| 20260502184045 | 21 | 0 | 0.0 | 4.8 | 0.03 | 0.76 | 0.30 | 61 | 1022.2 |
| 20260502183546 | 21 | 74 | 0.0 | 4.8 | 0.03 | 0.76 | 0.30 | 64 | 1022.2 |
| 20260502183052 | 21 | 0 | 0.0 | 3.2 | 0.03 | 0.76 | 0.30 | 63 | 1022.3 |
| 20260502182547 | 20 | 0 | 0.0 | 4.8 | 0.03 | 0.76 | 0.30 | 63 | 1022.4 |
| 20260502182046 | 20 | 0 | 0.0 | 4.8 | 0.03 | 0.76 | 0.30 | 66 | 1022.4 |
| 20260502181556 | 20 | 95 | 1.6 | 4.8 | 0.03 | 0.76 | 0.30 | 67 | 1022.4 |
| 20260502181047 | 20 | 99 | 0.0 | 4.8 | 0.03 | 0.76 | 0.30 | 62 | 1022.6 |
| 20260502180547 | 20 | 0 | 0.0 | 4.8 | 0.03 | 0.76 | 0.30 | 65 | 1022.7 |
| 20260502164046 | 17 | 0 | 0.0 | 3.2 | 0.03 | 0.89 | 0.28 | 73 | 1023.4 |
| 20260502163546 | 17 | 81 | 0.0 | 3.2 | 0.00 | 0.86 | 0.25 | 75 | 1023.5 |
| 20260502163058 | 17 | 0 | 0.0 | 4.8 | 0.03 | 0.86 | 0.25 | 78 | 1023.5 |
| 20260502162546 | 17 | 81 | 0.0 | 4.8 | 0.03 | 0.86 | 0.25 | 80 | 1023.5 |
| 20260502162045 | 16 | 0 | 0.0 | 4.8 | 0.03 | 0.86 | 0.25 | 76 | 1023.5 |
| 20260502161556 | 16 | 0 | 0.0 | 3.2 | 0.03 | 0.86 | 0.25 | 80 | 1023.6 |
| 20260502161045 | 16 | 81 | 0.0 | 3.2 | 0.03 | 0.86 | 0.25 | 84 | 1023.6 |
| 20260502160547 | 16 | 0 | 0.0 | 3.2 | 0.03 | 0.86 | 0.25 | 84 | 1023.7 |
| 20260502152047 | 13 | 0 | 0.0 | 1.6 | 0.03 | 0.91 | 0.23 | 95 | 1023.7 |
| 20260502151612 | 13 | 0 | 0.0 | 4.8 | 0.03 | 0.91 | 0.23 | 94 | 1023.6 |
| 20260502151046 | 13 | 0 | 0.0 | 4.8 | 0.03 | 0.91 | 0.23 | 96 | 1023.6 |
| 20260502150546 | 13 | 0 | 0.0 | 1.6 | 0.03 | 0.91 | 0.23 | 96 | 1023.5 |
| 20260502130546 | 10 | 0 | 0.0 | 1.6 | 0.00 | 1.14 | 0.18 | 98 | 1022.5 |
| 20260502123545 | 9 | 0 | 0.0 | 3.2 | 0.03 | 1.32 | 0.18 | 97 | 1022.1 |
| 20260502123048 | 9 | 0 | 0.0 | 3.2 | 0.03 | 1.32 | 0.18 | 97 | 1022.0 |
| 20260502122545 | 9 | 82 | 0.0 | 1.6 | 0.03 | 1.32 | 0.18 | 97 | 1021.9 |
| 20260502122046 | 9 | 0 | 0.0 | 1.6 | 0.03 | 1.32 | 0.18 | 97 | 1021.8 |
| 20260502121551 | 9 | 82 | 0.0 | 1.6 | 0.03 | 1.32 | 0.18 | 97 | 1021.7 |
| 20260502121046 | 9 | 0 | 0.0 | 1.6 | 0.03 | 1.32 | 0.18 | 97 | 1021.7 |
| 20260502120546 | 9 | 0 | 0.0 | 1.6 | 0.03 | 1.32 | 0.18 | 97 | 1021.4 |
| 20260502115547 | 9 | 0 | 0.0 | 1.6 | 0.00 | 1.55 | 0.15 | 97 | 1021.3 |
| 20260502115046 | 9 | 0 | 0.0 | 1.6 | 0.00 | 1.55 | 0.15 | 97 | 1021.2 |
| 20260502114559 | 9 | 0 | 0.0 | 1.6 | 0.03 | 1.55 | 0.15 | 97 | 1021.2 |
| 20260502114047 | 9 | 0 | 0.0 | 1.6 | 0.03 | 1.55 | 0.15 | 97 | 1020.9 |
| 20260502113547 | 9 | 0 | 0.0 | 3.2 | 0.03 | 1.55 | 0.15 | 97 | 1021.0 |
| 20260502113104 | 9 | 0 | 0.0 | 3.2 | 0.03 | 1.55 | 0.15 | 97 | 1020.9 |
| 20260502112546 | 9 | 0 | 0.0 | 1.6 | 0.03 | 1.55 | 0.15 | 97 | 1020.9 |
| 20260502112048 | 9 | 0 | 0.0 | 3.2 | 0.03 | 1.55 | 0.15 | 97 | 1020.8 |
| 20260502111603 | 9 | 0 | 0.0 | 3.2 | 0.03 | 1.55 | 0.15 | 97 | 1020.8 |
| 20260502111047 | 9 | 82 | 0.0 | 1.6 | 0.03 | 1.55 | 0.15 | 97 | 1020.8 |
| 20260502110548 | 9 | 0 | 0.0 | 1.6 | 0.03 | 1.55 | 0.15 | 97 | 1020.8 |
| 20260502110100 | 9 | 0 | 0.0 | 1.6 | 0.03 | 1.55 | 0.15 | 97 | 1020.7 |
| 20260502105549 | 9 | 0 | 0.0 | 0.0 | 0.03 | 1.78 | 0.15 | 97 | 1020.7 |
| 20260502105050 | 9 | 0 | 0.0 | 0.0 | 0.03 | 1.78 | 0.15 | 97 | 1020.7 |
| 20260502104607 | 9 | 0 | 0.0 | 0.0 | 0.00 | 1.75 | 0.13 | 97 | 1020.6 |
| 20260502104047 | 9 | 0 | 0.0 | 0.0 | 0.03 | 1.75 | 0.13 | 97 | 1020.5 |
| 20260502103549 | 10 | 0 | 0.0 | 0.0 | 0.03 | 1.75 | 0.13 | 97 | 1020.5 |
| 20260502103059 | 10 | 0 | 0.0 | 0.0 | 0.03 | 1.75 | 0.13 | 97 | 1020.4 |
| 20260502102552 | 10 | 0 | 0.0 | 1.6 | 0.03 | 1.75 | 0.13 | 97 | 1020.2 |
| 20260502102048 | 10 | 0 | 0.0 | 1.6 | 0.03 | 1.75 | 0.13 | 97 | 1020.2 |
| 20260502101604 | 10 | 0 | 0.0 | 1.6 | 0.03 | 1.75 | 0.13 | 97 | 1020.1 |
| 20260502101048 | 10 | 82 | 0.0 | 1.6 | 0.03 | 1.75 | 0.13 | 97 | 1020.0 |
| 20260502100548 | 10 | 0 | 0.0 | 1.6 | 0.03 | 1.75 | 0.13 | 97 | 1020.0 |
| 20260502091048 | 10 | 82 | 0.0 | 1.6 | 0.03 | 1.96 | 0.10 | 97 | 1019.4 |
| 20260502090549 | 10 | 82 | 0.0 | 1.6 | 0.03 | 1.96 | 0.10 | 97 | 1019.4 |
| 20260502071047 | 10 | 0 | 0.0 | 1.6 | 0.03 | 2.03 | 0.05 | 97 | 1019.1 |
| 20260502070546 | 10 | 0 | 0.0 | 1.6 | 0.03 | 2.03 | 0.05 | 97 | 1019.0 |
| 20260502070111 | 10 | 0 | 0.0 | 1.6 | 0.03 | 2.03 | 0.05 | 97 | 1019.0 |
| 20260502065546 | 10 | 0 | 0.0 | 1.6 | 0.03 | 2.03 | 0.05 | 97 | 1018.9 |
| 20260502065047 | 10 | 0 | 0.0 | 0.0 | 0.03 | 2.03 | 0.05 | 97 | 1018.9 |
| 20260502064552 | 10 | 0 | 0.0 | 0.0 | 0.03 | 2.03 | 0.05 | 97 | 1019.0 |
| 20260502064045 | 10 | 0 | 0.0 | 0.0 | 0.03 | 2.03 | 0.05 | 97 | 1018.9 |
| 20260502063545 | 10 | 0 | 0.0 | 1.6 | 0.03 | 2.01 | 0.03 | 97 | 1019.1 |
| 20260502063111 | 10 | 0 | 0.0 | 1.6 | 0.03 | 2.01 | 0.03 | 97 | 1019.1 |
| 20260502062549 | 10 | 0 | 0.0 | 1.6 | 0.03 | 2.01 | 0.03 | 97 | 1019.2 |
| 20260502062046 | 10 | 0 | 0.0 | 1.6 | 0.03 | 2.01 | 0.03 | 97 | 1019.2 |
| 20260502061554 | 10 | 0 | 0.0 | 0.0 | 0.03 | 2.01 | 0.03 | 97 | 1019.3 |
| 20260502061046 | 10 | 0 | 0.0 | 0.0 | 0.03 | 2.01 | 0.03 | 97 | 1019.3 |
| 20260502060546 | 11 | 0 | 0.0 | 1.6 | 0.03 | 2.01 | 0.03 | 97 | 1019.4 |
| 20260502060059 | 11 | 0 | 0.0 | 1.6 | 0.03 | 2.01 | 0.03 | 97 | 1019.4 |
| 20260502055546 | 11 | 0 | 0.0 | 1.6 | 0.03 | 2.01 | 0.03 | 97 | 1019.4 |
| 20260502055049 | 11 | 0 | 0.0 | 1.6 | 0.03 | 2.01 | 0.03 | 97 | 1019.4 |
| 20260502054602 | 11 | 0 | 0.0 | 1.6 | 0.03 | 2.01 | 0.03 | 97 | 1019.3 |
| 20260502054045 | 11 | 0 | 0.0 | 1.6 | 0.05 | 2.01 | 0.03 | 97 | 1019.3 |
| 20260502053545 | 11 | 0 | 0.0 | 1.6 | 0.03 | 1.98 | 0.00 | 97 | 1019.3 |
| 20260502053052 | 10 | 0 | 0.0 | 0.0 | 0.03 | 1.98 | 0.00 | 97 | 1019.1 |
| 20260502052545 | 11 | 0 | 0.0 | 0.0 | 0.03 | 1.98 | 0.00 | 97 | 1019.1 |
| 20260502052046 | 11 | 0 | 0.0 | 0.0 | 0.03 | 1.98 | 0.00 | 97 | 1019.1 |
| 20260502051553 | 11 | 0 | 0.0 | 0.0 | 0.03 | 1.98 | 0.00 | 97 | 1019.1 |
| 20260502051045 | 11 | 0 | 0.0 | 0.0 | 0.03 | 1.98 | 0.00 | 97 | 1019.1 |
| 20260502050545 | 11 | 0 | 0.0 | 0.0 | 0.03 | 1.98 | 0.00 | 96 | 1019.0 |
| 20260502050056 | 11 | 0 | 0.0 | 0.0 | 0.03 | 1.98 | 0.00 | 96 | 1019.1 |
| 20260502045545 | 11 | 0 | 0.0 | 0.0 | 0.03 | 1.98 | 1.98 | 96 | 1018.9 |
| 20260502045047 | 11 | 0 | 0.0 | 0.0 | 0.05 | 1.98 | 1.98 | 97 | 1018.9 |
| 20260502044546 | 11 | 0 | 0.0 | 0.0 | 0.03 | 1.96 | 1.96 | 97 | 1019.1 |
| 20260502044050 | 11 | 0 | 0.0 | 0.0 | 0.03 | 1.96 | 1.96 | 97 | 1019.1 |
| 20260502043547 | 11 | 0 | 0.0 | 0.0 | 0.03 | 1.96 | 1.96 | 97 | 1019.2 |
| 20260502043108 | 11 | 0 | 0.0 | 0.0 | 0.03 | 1.96 | 1.96 | 96 | 1019.2 |
| 20260502042548 | 11 | 0 | 0.0 | 0.0 | 0.03 | 1.96 | 1.96 | 96 | 1019.1 |
| 20260502042050 | 11 | 0 | 0.0 | 0.0 | 0.03 | 1.96 | 1.96 | 96 | 1019.2 |
| 20260502041622 | 11 | 0 | 0.0 | 1.6 | 0.03 | 1.96 | 1.96 | 97 | 1019.0 |
| 20260502041050 | 11 | 0 | 0.0 | 1.6 | 0.03 | 1.96 | 1.96 | 97 | 1019.0 |
| 20260502040549 | 11 | 0 | 0.0 | 1.6 | 0.05 | 1.96 | 1.96 | 96 | 1018.9 |
| 20260502040057 | 11 | 0 | 0.0 | 1.6 | 0.05 | 1.96 | 1.96 | 96 | 1019.0 |
| 20260502035548 | 11 | 0 | 0.0 | 1.6 | 0.05 | 1.98 | 1.96 | 96 | 1019.1 |
| 20260502035048 | 11 | 82 | 0.0 | 1.6 | 0.03 | 1.96 | 1.93 | 96 | 1019.1 |
| 20260502034552 | 11 | 0 | 0.0 | 1.6 | 0.03 | 1.96 | 1.93 | 97 | 1019.1 |
| 20260502034048 | 11 | 82 | 0.0 | 3.2 | 0.03 | 1.96 | 1.93 | 97 | 1019.2 |
| 20260502033548 | 11 | 0 | 0.0 | 3.2 | 0.03 | 1.96 | 1.93 | 97 | 1019.2 |
| 20260502033049 | 11 | 0 | 0.0 | 3.2 | 0.03 | 1.96 | 1.93 | 97 | 1019.2 |
| 20260502032548 | 11 | 82 | 0.0 | 3.2 | 0.03 | 1.96 | 1.93 | 97 | 1019.1 |
| 20260502032050 | 11 | 82 | 0.0 | 3.2 | 0.03 | 1.96 | 1.93 | 96 | 1019.1 |
| 20260502031553 | 11 | 82 | 0.0 | 3.2 | 0.05 | 1.96 | 1.93 | 96 | 1018.9 |
| 20260502031048 | 11 | 0 | 0.0 | 3.2 | 0.05 | 1.96 | 1.93 | 97 | 1018.7 |
| 20260502030548 | 11 | 82 | 0.0 | 3.2 | 0.03 | 1.93 | 1.91 | 97 | 1018.7 |
| 20260502030110 | 11 | 0 | 0.0 | 3.2 | 0.03 | 1.93 | 1.91 | 97 | 1018.5 |
| 20260502025548 | 11 | 82 | 0.0 | 3.2 | 0.03 | 1.93 | 1.91 | 97 | 1018.6 |
| 20260502025047 | 11 | 0 | 0.0 | 3.2 | 0.03 | 1.93 | 1.91 | 97 | 1018.3 |
| 20260502024604 | 11 | 0 | 0.0 | 3.2 | 0.03 | 1.93 | 1.91 | 97 | 1018.5 |
| 20260502024047 | 11 | 0 | 0.0 | 3.2 | 0.03 | 1.93 | 1.91 | 97 | 1018.3 |
| 20260502023547 | 11 | 0 | 0.0 | 3.2 | 0.03 | 1.93 | 1.91 | 97 | 1018.2 |
| 20260502023117 | 11 | 82 | 0.0 | 4.8 | 0.05 | 1.93 | 1.91 | 97 | 1018.2 |
| 20260502022549 | 11 | 0 | 0.0 | 4.8 | 0.05 | 1.93 | 1.91 | 97 | 1018.0 |
| 20260502022048 | 11 | 145 | 0.0 | 3.2 | 0.05 | 1.93 | 1.91 | 97 | 1017.9 |
| 20260502021552 | 11 | 0 | 0.0 | 3.2 | 0.03 | 1.91 | 1.88 | 97 | 1017.8 |
| 20260502021048 | 11 | 0 | 0.0 | 1.6 | 0.03 | 1.91 | 1.88 | 97 | 1017.7 |
| 20260502020547 | 11 | 0 | 0.0 | 1.6 | 0.03 | 1.91 | 1.88 | 97 | 1017.8 |
| 20260502020049 | 11 | 0 | 0.0 | 1.6 | 0.03 | 1.91 | 1.88 | 97 | 1017.7 |
| 20260502015549 | 11 | 0 | 0.0 | 1.6 | 0.03 | 1.91 | 1.88 | 97 | 1017.7 |
| 20260502015047 | 11 | 0 | 0.0 | 3.2 | 0.03 | 1.91 | 1.88 | 97 | 1017.5 |
| 20260502014603 | 11 | 0 | 0.0 | 4.8 | 0.05 | 1.91 | 1.88 | 97 | 1017.4 |
| 20260502014047 | 11 | 145 | 0.0 | 4.8 | 0.05 | 1.91 | 1.88 | 97 | 1017.4 |
| 20260502013547 | 11 | 0 | 0.0 | 4.8 | 0.05 | 1.91 | 1.88 | 97 | 1017.4 |
| 20260502013059 | 11 | 0 | 0.0 | 3.2 | 0.03 | 1.88 | 1.85 | 97 | 1017.2 |
| 20260502012547 | 11 | 0 | 0.0 | 4.8 | 0.03 | 1.88 | 1.85 | 97 | 1017.1 |
| 20260502012047 | 11 | 0 | 0.0 | 4.8 | 0.03 | 1.88 | 1.85 | 97 | 1017.1 |
| 20260502011604 | 11 | 147 | 0.0 | 3.2 | 0.03 | 1.88 | 1.85 | 97 | 1017.2 |
| 20260502011047 | 11 | 147 | 0.0 | 4.8 | 0.03 | 1.88 | 1.85 | 97 | 1016.9 |
| 20260502010548 | 11 | 150 | 0.0 | 4.8 | 0.03 | 1.88 | 1.85 | 97 | 1017.0 |
| 20260502010053 | 11 | 0 | 0.0 | 4.8 | 0.05 | 1.88 | 1.85 | 97 | 1016.8 |
| 20260502005547 | 11 | 150 | 0.0 | 4.8 | 0.05 | 1.88 | 1.85 | 97 | 1016.5 |
| 20260502005048 | 11 | 0 | 0.0 | 4.8 | 0.05 | 1.88 | 1.85 | 97 | 1016.4 |
| 20260502004555 | 11 | 0 | 0.0 | 4.8 | 0.03 | 1.85 | 1.83 | 97 | 1016.5 |
| 20260502004048 | 12 | 0 | 0.0 | 6.4 | 0.03 | 1.85 | 1.83 | 97 | 1016.2 |
| 20260502003546 | 12 | 149 | 0.0 | 9.7 | 0.03 | 1.85 | 1.83 | 97 | 1016.2 |
| 20260502003050 | 12 | 149 | 1.6 | 9.7 | 0.03 | 1.85 | 1.83 | 96 | 1016.0 |
| 20260502002547 | 12 | 0 | 1.6 | 8.0 | 0.03 | 1.85 | 1.83 | 97 | 1015.9 |
| 20260502002047 | 12 | 118 | 0.0 | 6.4 | 0.03 | 1.85 | 1.83 | 97 | 1015.8 |
| 20260502001558 | 12 | 0 | 1.6 | 6.4 | 0.05 | 1.85 | 1.83 | 97 | 1015.8 |
| 20260502001047 | 12 | 0 | 1.6 | 6.4 | 0.05 | 1.85 | 1.83 | 97 | 1015.6 |
| 20260502000547 | 12 | 112 | 0.0 | 4.8 | 0.05 | 1.85 | 1.83 | 97 | 1015.4 |
| 20260502000100 | 12 | 45 | 0.0 | 8.0 | 0.03 | 1.83 | 1.80 | 97 | 1015.5 |
| 20260501235550 | 12 | 45 | 1.6 | 8.0 | 0.03 | 1.83 | 1.80 | 97 | 1015.2 |
| 20260501235048 | 12 | 0 | 0.0 | 3.2 | 0.03 | 1.83 | 1.80 | 97 | 1014.7 |
| 20260501234549 | 12 | 102 | 0.0 | 3.2 | 0.03 | 1.83 | 1.80 | 97 | 1014.9 |
| 20260501234048 | 12 | 145 | 0.0 | 3.2 | 0.03 | 1.83 | 1.80 | 97 | 1015.2 |
| 20260501233548 | 12 | 0 | 0.0 | 3.2 | 0.03 | 1.83 | 1.80 | 97 | 1015.6 |
| 20260501233109 | 12 | 145 | 0.0 | 3.2 | 0.05 | 1.83 | 1.80 | 97 | 1015.8 |
| 20260501232547 | 12 | 145 | 0.0 | 3.2 | 0.05 | 1.83 | 1.80 | 97 | 1015.5 |
| 20260501232049 | 12 | 0 | 0.0 | 6.4 | 0.05 | 1.83 | 1.80 | 97 | 1015.5 |
| 20260501231613 | 12 | 146 | 1.6 | 6.4 | 0.03 | 1.80 | 1.78 | 97 | 1015.2 |
| 20260501231048 | 13 | 94 | 0.0 | 6.4 | 0.03 | 1.80 | 1.78 | 97 | 1015.1 |
| 20260501230548 | 13 | 0 | 1.6 | 4.8 | 0.03 | 1.80 | 1.78 | 97 | 1015.0 |
| 20260501230117 | 13 | 105 | 0.0 | 3.2 | 0.03 | 1.80 | 1.78 | 97 | 1014.8 |
| 20260501225548 | 13 | 105 | 0.0 | 3.2 | 0.03 | 1.80 | 1.78 | 97 | 1014.6 |
| 20260501225046 | 13 | 0 | 0.0 | 3.2 | 0.05 | 1.80 | 1.78 | 97 | 1014.6 |
| 20260501224557 | 13 | 105 | 0.0 | 3.2 | 0.05 | 1.80 | 1.78 | 97 | 1014.7 |
| 20260501224118 | 13 | 0 | 0.0 | 3.2 | 0.05 | 1.80 | 1.78 | 97 | 1014.7 |
| 20260501223547 | 13 | 0 | 0.0 | 3.2 | 0.05 | 1.80 | 1.78 | 97 | 1014.6 |
| 20260501223055 | 13 | 0 | 0.0 | 3.2 | 0.03 | 1.78 | 1.75 | 97 | 1014.7 |
| 20260501222548 | 13 | 26 | 0.0 | 4.8 | 0.03 | 1.78 | 1.75 | 97 | 1014.5 |
| 20260501222048 | 13 | 26 | 0.0 | 6.4 | 0.03 | 1.78 | 1.75 | 97 | 1014.1 |
| 20260501221602 | 13 | 138 | 1.6 | 6.4 | 0.03 | 1.78 | 1.75 | 97 | 1014.0 |
| 20260501221047 | 13 | 118 | 0.0 | 3.2 | 0.03 | 1.78 | 1.75 | 97 | 1014.2 |
| 20260501220548 | 13 | 118 | 0.0 | 3.2 | 0.05 | 1.78 | 1.75 | 97 | 1014.5 |
| 20260501220100 | 13 | 118 | 0.0 | 3.2 | 0.05 | 1.78 | 1.75 | 97 | 1014.6 |
| 20260501215550 | 13 | 0 | 0.0 | 3.2 | 0.05 | 1.78 | 1.75 | 97 | 1014.7 |
| 20260501215047 | 13 | 118 | 0.0 | 3.2 | 0.03 | 1.75 | 1.73 | 97 | 1014.7 |
| 20260501214551 | 13 | 0 | 0.0 | 3.2 | 0.03 | 1.75 | 1.73 | 97 | 1014.3 |
| 20260501214047 | 13 | 118 | 0.0 | 3.2 | 0.03 | 1.75 | 1.73 | 97 | 1013.9 |
| 20260501213547 | 13 | 118 | 0.0 | 4.8 | 0.03 | 1.75 | 1.73 | 97 | 1013.7 |
| 20260501213051 | 13 | 118 | 0.0 | 4.8 | 0.05 | 1.75 | 1.73 | 97 | 1014.0 |
| 20260501212548 | 13 | 138 | 0.0 | 4.8 | 0.05 | 1.75 | 1.73 | 97 | 1014.2 |
| 20260501212049 | 13 | 0 | 0.0 | 3.2 | 0.05 | 1.75 | 1.73 | 97 | 1013.9 |
| 20260501211548 | 13 | 137 | 0.0 | 4.8 | 0.05 | 1.75 | 1.73 | 97 | 1013.7 |
| 20260501211048 | 13 | 0 | 0.0 | 6.4 | 0.05 | 1.75 | 1.73 | 97 | 1013.6 |
| 20260501210548 | 13 | 139 | 0.0 | 6.4 | 0.03 | 1.73 | 1.70 | 97 | 1013.4 |
| 20260501210051 | 13 | 138 | 1.6 | 6.4 | 0.05 | 1.73 | 1.70 | 97 | 1013.1 |
| 20260501205550 | 14 | 129 | 0.0 | 6.4 | 0.05 | 1.73 | 1.70 | 97 | 1012.9 |
| 20260501205048 | 14 | 0 | 0.0 | 4.8 | 0.05 | 1.73 | 1.70 | 97 | 1013.2 |
| 20260501204554 | 14 | 0 | 0.0 | 8.0 | 0.05 | 1.73 | 1.70 | 97 | 1013.1 |
| 20260501204049 | 14 | 0 | 1.6 | 8.0 | 0.05 | 1.73 | 1.70 | 97 | 1012.9 |